createdAt,value
2018-07-15T00:02:33.879Z,64.40
2018-07-15T00:05:08.084Z,64.26
2018-07-15T00:07:41.854Z,64.23
2018-07-15T00:10:15.179Z,64.43
2018-07-15T00:12:47.701Z,64.74
2018-07-15T00:15:21.514Z,65.08
2018-07-15T00:17:55.563Z,65.08
2018-07-15T00:20:28.106Z,65.28
2018-07-15T00:23:01.090Z,65.21
2018-07-15T00:25:34.074Z,65.39
2018-07-15T00:28:07.632Z,65.47
2018-07-15T00:30:44.614Z,65.39
2018-07-15T00:33:18.145Z,65.70
2018-07-15T00:35:51.232Z,66.03
2018-07-15T00:38:25.841Z,66.45
2018-07-15T00:40:58.361Z,66.93
2018-07-15T00:43:30.876Z,67.43
2018-07-15T00:46:08.339Z,67.88
2018-07-15T00:48:40.874Z,67.92
2018-07-15T00:51:13.355Z,67.79
2018-07-15T00:53:47.339Z,67.57
2018-07-15T00:56:20.193Z,67.72
2018-07-15T00:58:53.564Z,68.14
2018-07-15T01:01:28.155Z,68.49
2018-07-15T01:04:00.721Z,68.56
2018-07-15T01:06:34.190Z,69.69
2018-07-15T01:09:10.717Z,70.03
2018-07-15T01:11:43.209Z,70.50
2018-07-15T01:14:16.838Z,71.15
2018-07-15T01:16:49.942Z,71.23
2018-07-15T01:19:22.409Z,72.90
2018-07-15T01:21:56.283Z,72.77
2018-07-15T01:24:29.141Z,73.09
2018-07-15T01:27:01.680Z,73.48
2018-07-15T01:29:34.165Z,73.83
2018-07-15T01:32:08.629Z,73.26
2018-07-15T01:34:40.933Z,73.14
2018-07-15T01:37:14.383Z,72.94
2018-07-15T01:39:47.221Z,72.96
2018-07-15T01:42:20.829Z,72.89
2018-07-15T01:44:53.500Z,72.97
2018-07-15T01:47:27.377Z,73.03
2018-07-15T01:49:59.840Z,73.12
2018-07-15T01:52:33.036Z,73.67
2018-07-15T01:55:06.038Z,73.82
2018-07-15T01:57:38.577Z,74.20
2018-07-15T02:00:17.990Z,74.31
2018-07-15T02:02:53.397Z,74.41
2018-07-15T02:05:25.972Z,74.53
2018-07-15T02:08:00.805Z,75.10
2018-07-15T02:10:33.598Z,75.14
2018-07-15T02:13:06.409Z,75.47
2018-07-15T02:15:39.109Z,75.51
2018-07-15T02:18:11.672Z,75.40
2018-07-15T02:20:44.281Z,75.33
2018-07-15T02:23:17.313Z,75.51
2018-07-15T02:25:50.081Z,76.26
2018-07-15T02:28:24.681Z,76.99
2018-07-15T02:31:02.582Z,77.08
2018-07-15T02:33:36.984Z,77.15
2018-07-15T02:36:09.585Z,77.54
2018-07-15T02:38:43.158Z,78.53
2018-07-15T02:41:16.649Z,78.26
2018-07-15T02:43:50.136Z,78.37
2018-07-15T02:46:24.696Z,78.79
2018-07-15T02:48:58.161Z,78.76
2018-07-15T02:51:30.976Z,79.06
2018-07-15T02:54:04.812Z,78.79
2018-07-15T02:56:37.367Z,78.47
2018-07-15T02:59:11.370Z,78.60
2018-07-15T03:01:44.151Z,79.20
2018-07-15T03:04:16.750Z,79.40
2018-07-15T03:06:51.490Z,78.97
2018-07-15T03:09:25.372Z,78.85
2018-07-15T03:11:57.886Z,79.02
2018-07-15T03:14:30.261Z,79.48
2018-07-15T03:17:03.117Z,79.96
2018-07-15T03:19:35.930Z,80.04
2018-07-15T03:22:08.970Z,80.27
2018-07-15T03:24:41.785Z,81.00
2018-07-15T03:27:14.249Z,81.47
2018-07-15T03:29:46.769Z,81.22
2018-07-15T03:32:20.584Z,81.07
2018-07-15T03:34:53.339Z,80.61
2018-07-15T03:37:25.733Z,81.12
2018-07-15T03:39:59.570Z,81.48
2018-07-15T03:42:32.117Z,81.39
2018-07-15T03:45:07.582Z,81.61
2018-07-15T03:47:40.654Z,81.91
2018-07-15T03:50:18.042Z,81.59
2018-07-15T03:52:50.849Z,81.98
2018-07-15T03:57:57.514Z,82.26
2018-07-15T04:00:31.473Z,82.01
2018-07-15T04:03:04.174Z,81.80
2018-07-15T04:05:37.641Z,81.46
2018-07-15T04:08:10.225Z,81.16
2018-07-15T04:10:43.857Z,81.44
2018-07-15T04:13:16.377Z,81.93
2018-07-15T04:15:49.214Z,82.75
2018-07-15T04:18:22.612Z,83.29
2018-07-15T04:20:55.392Z,83.82
2018-07-15T04:23:29.386Z,83.23
2018-07-15T04:26:02.677Z,82.59
2018-07-15T04:28:39.496Z,82.07
2018-07-15T04:31:13.064Z,81.84
2018-07-15T04:33:45.565Z,81.84
2018-07-15T04:36:17.982Z,82.03
2018-07-15T04:38:51.573Z,82.42
2018-07-15T04:41:25.708Z,82.93
2018-07-15T04:43:58.218Z,82.57
2018-07-15T04:46:31.090Z,82.04
2018-07-15T04:49:03.630Z,81.45
2018-07-15T04:51:36.796Z,80.78
2018-07-15T04:54:09.749Z,80.27
2018-07-15T04:56:42.559Z,79.78
2018-07-15T04:59:16.964Z,79.38
2018-07-15T05:01:51.643Z,79.19
2018-07-15T05:04:29.417Z,78.99
2018-07-15T05:07:02.273Z,78.62
2018-07-15T05:09:34.833Z,78.47
2018-07-15T05:12:09.505Z,78.45
2018-07-15T05:14:42.419Z,78.50
2018-07-15T05:17:14.990Z,78.46
2018-07-15T05:19:47.574Z,78.43
2018-07-15T05:22:21.506Z,78.36
2018-07-15T05:24:54.845Z,78.31
2018-07-15T05:27:27.584Z,78.13
2018-07-15T05:30:04.143Z,77.84
2018-07-15T05:32:36.832Z,77.59
2018-07-15T05:35:09.593Z,76.91
2018-07-15T05:37:45.241Z,76.44
2018-07-15T05:40:17.863Z,75.58
2018-07-15T05:42:51.494Z,75.05
2018-07-15T05:45:25.029Z,74.66
2018-07-15T05:47:58.102Z,74.52
2018-07-15T05:50:31.775Z,74.01
2018-07-15T05:53:05.697Z,72.83
2018-07-15T05:55:38.080Z,72.33
2018-07-15T05:58:11.383Z,71.44
2018-07-15T06:00:44.406Z,70.99
2018-07-15T06:03:19.195Z,70.78
2018-07-15T06:05:52.995Z,70.74
2018-07-15T06:08:27.901Z,70.83
2018-07-15T06:11:03.384Z,69.54
2018-07-15T06:13:38.056Z,68.05
2018-07-15T06:16:12.128Z,66.95
2018-07-15T06:18:44.745Z,66.26
2018-07-15T06:21:17.353Z,63.42
2018-07-15T06:23:50.390Z,61.77
2018-07-15T06:26:22.853Z,62.38
2018-07-15T06:28:56.112Z,61.40
2018-07-15T06:31:29.855Z,60.69
2018-07-15T06:34:03.720Z,59.98
2018-07-15T06:36:39.094Z,59.17
2018-07-15T06:39:14.136Z,58.78
2018-07-15T06:41:51.320Z,57.65
2018-07-15T06:44:25.171Z,56.34
2018-07-15T06:46:58.270Z,56.12
2018-07-15T06:49:32.884Z,55.20
2018-07-15T06:52:06.737Z,55.03
2018-07-15T06:54:40.274Z,54.19
2018-07-15T06:57:13.826Z,53.69
2018-07-15T06:59:47.877Z,53.74
2018-07-15T07:02:21.605Z,52.71
2018-07-15T07:04:55.357Z,52.93
2018-07-15T07:07:28.060Z,52.90
2018-07-15T07:10:01.931Z,52.42
2018-07-15T07:12:34.435Z,51.42
2018-07-15T07:15:07.794Z,49.77
2018-07-15T07:17:45.582Z,50.20
2018-07-15T07:20:18.801Z,49.93
2018-07-15T07:22:51.294Z,50.33
2018-07-15T07:25:25.152Z,50.14
2018-07-15T07:27:59.684Z,49.54
2018-07-15T07:30:34.109Z,49.42
2018-07-15T07:33:10.018Z,49.21
2018-07-15T07:35:42.953Z,49.12
2018-07-15T07:38:15.616Z,46.88
2018-07-15T07:40:50.212Z,46.64
2018-07-15T07:43:23.145Z,47.35
2018-07-15T07:45:56.550Z,47.42
2018-07-15T07:48:30.049Z,47.10
2018-07-15T07:51:03.595Z,46.00
2018-07-15T07:53:36.939Z,44.77
2018-07-15T07:56:10.769Z,42.21
2018-07-15T07:58:45.940Z,39.37
2018-07-15T08:01:20.621Z,38.41
2018-07-15T08:03:55.669Z,36.77
2018-07-15T08:06:30.607Z,35.20
2018-07-15T08:09:15.776Z,33.64
2018-07-15T08:11:50.588Z,34.18
2018-07-15T08:14:23.472Z,34.12
2018-07-15T08:16:56.965Z,34.05
2018-07-15T08:19:29.597Z,33.06
2018-07-15T08:22:03.164Z,32.53
2018-07-15T08:24:39.045Z,32.13
2018-07-15T08:27:12.248Z,31.89
2018-07-15T08:30:08.371Z,31.28
2018-07-15T08:32:41.617Z,30.40
2018-07-15T08:35:18.679Z,31.17
2018-07-15T08:37:56.733Z,31.05
2018-07-15T08:40:30.420Z,30.56
2018-07-15T08:43:03.864Z,29.93
2018-07-15T08:45:36.600Z,28.40
2018-07-15T08:48:16.760Z,28.86
2018-07-15T08:50:50.249Z,29.04
2018-07-15T08:53:24.004Z,28.45
2018-07-15T08:55:58.090Z,28.25
2018-07-15T08:58:32.326Z,24.82
2018-07-15T09:01:06.587Z,24.85
2018-07-15T09:03:47.308Z,24.47
2018-07-15T09:06:21.145Z,27.25
2018-07-15T09:08:59.044Z,28.19
2018-07-15T09:11:32.055Z,27.28
2018-07-15T09:14:05.294Z,26.54
2018-07-15T09:16:39.582Z,25.55
2018-07-15T09:19:13.278Z,25.61
2018-07-15T09:21:46.558Z,26.26
2018-07-15T09:24:22.407Z,26.35
2018-07-15T09:26:59.119Z,27.22
2018-07-15T09:29:36.973Z,25.48
2018-07-15T09:32:11.906Z,25.47
2018-07-15T09:34:46.367Z,26.81
2018-07-15T09:37:22.924Z,26.98
2018-07-15T09:40:03.009Z,26.23
2018-07-15T09:42:37.746Z,25.83
2018-07-15T09:45:14.289Z,25.47
2018-07-15T09:47:47.747Z,25.79
2018-07-15T09:50:23.785Z,25.85
2018-07-15T09:52:59.931Z,26.08
2018-07-15T09:55:34.055Z,25.50
2018-07-15T09:58:11.911Z,24.09
2018-07-15T10:00:53.540Z,25.17
2018-07-15T10:03:28.044Z,25.67
2018-07-15T10:06:03.768Z,25.98
2018-07-15T10:08:37.250Z,26.24
2018-07-15T10:11:10.617Z,26.21
2018-07-15T10:13:50.098Z,27.27
2018-07-15T10:16:25.380Z,27.50
2018-07-15T10:19:00.350Z,27.21
2018-07-15T10:21:37.773Z,27.06
2018-07-15T10:24:14.008Z,27.08
2018-07-15T10:26:48.689Z,26.31
2018-07-15T10:29:23.317Z,25.83
2018-07-15T10:31:55.848Z,25.38
2018-07-15T10:34:29.488Z,25.41
2018-07-15T10:37:02.340Z,24.63
2018-07-15T10:39:36.796Z,24.68
2018-07-15T10:42:11.304Z,25.46
2018-07-15T10:44:48.383Z,25.69
2018-07-15T10:47:24.523Z,23.39
2018-07-15T10:49:58.587Z,23.26
2018-07-15T10:52:33.623Z,25.05
2018-07-15T10:55:07.135Z,25.76
2018-07-15T10:57:40.461Z,25.68
2018-07-15T11:00:16.473Z,26.41
2018-07-15T11:02:52.492Z,26.04
2018-07-15T11:05:25.452Z,25.77
2018-07-15T11:07:58.336Z,25.74
2018-07-15T11:10:32.161Z,25.62
2018-07-15T11:13:06.491Z,23.39
2018-07-15T11:15:41.481Z,22.92
2018-07-15T11:18:23.528Z,24.05
2018-07-15T11:20:57.476Z,23.89
2018-07-15T11:23:33.764Z,23.88
2018-07-15T11:26:11.601Z,24.53
2018-07-15T11:28:48.383Z,23.51
2018-07-15T11:31:23.438Z,23.32
2018-07-15T11:34:02.606Z,23.39
2018-07-15T11:36:37.445Z,23.09
2018-07-15T11:39:11.399Z,22.98
2018-07-15T11:41:44.582Z,22.96
2018-07-15T11:44:20.212Z,21.90
2018-07-15T11:47:02.440Z,20.71
2018-07-15T11:49:35.996Z,22.08
2018-07-15T11:52:12.269Z,22.50
2018-07-15T11:54:47.293Z,23.24
2018-07-15T11:57:21.183Z,23.84
2018-07-15T11:59:57.929Z,23.86
2018-07-15T12:02:33.431Z,23.60
2018-07-15T12:05:07.745Z,23.78
2018-07-15T12:07:42.311Z,23.29
2018-07-15T12:10:17.267Z,23.10
2018-07-15T12:12:51.026Z,23.09
2018-07-15T12:15:25.741Z,23.16
2018-07-15T12:18:01.085Z,22.50
2018-07-15T12:20:40.218Z,23.31
2018-07-15T12:23:14.402Z,23.51
2018-07-15T12:25:47.942Z,22.84
2018-07-15T12:28:20.919Z,22.29
2018-07-15T12:30:54.231Z,22.21
2018-07-15T12:33:27.662Z,22.40
2018-07-15T12:36:04.796Z,22.07
2018-07-15T12:38:41.030Z,22.01
2018-07-15T12:41:14.577Z,21.39
2018-07-15T12:43:48.092Z,21.08
2018-07-15T12:46:23.265Z,20.46
2018-07-15T12:48:55.924Z,21.15
2018-07-15T12:51:32.616Z,21.28
2018-07-15T12:54:06.805Z,21.28
2018-07-15T12:56:41.751Z,21.45
2018-07-15T12:59:18.202Z,20.73
2018-07-15T13:01:52.223Z,20.62
2018-07-15T13:04:26.683Z,20.59
2018-07-15T13:07:03.318Z,19.84
2018-07-15T13:09:36.625Z,20.21
2018-07-15T13:12:15.950Z,20.43
2018-07-15T13:14:54.503Z,20.01
2018-07-15T13:17:29.789Z,20.38
2018-07-15T13:20:05.623Z,20.91
2018-07-15T13:22:43.893Z,20.72
2018-07-15T13:25:20.552Z,20.38
2018-07-15T13:27:55.587Z,19.47
2018-07-15T13:30:34.280Z,19.78
2018-07-15T13:33:09.444Z,19.90
2018-07-15T13:35:58.017Z,19.42
2018-07-15T13:38:34.503Z,19.95
2018-07-15T13:41:10.167Z,20.09
2018-07-15T13:43:52.133Z,19.34
2018-07-15T13:46:29.055Z,19.47
2018-07-15T13:49:02.473Z,20.10
2018-07-15T13:51:38.107Z,19.15
2018-07-15T13:54:10.968Z,19.58
2018-07-15T13:56:43.663Z,19.11
2018-07-15T13:59:17.625Z,19.70
2018-07-15T14:01:51.209Z,19.92
2018-07-15T14:04:31.614Z,19.43
2018-07-15T14:07:13.950Z,19.64
2018-07-15T14:09:51.997Z,19.52
2018-07-15T14:12:27.926Z,20.33
2018-07-15T14:15:05.336Z,20.13
2018-07-15T14:17:39.335Z,19.78
2018-07-15T14:20:24.366Z,19.54
2018-07-15T14:23:00.457Z,19.10
2018-07-15T14:25:37.366Z,19.35
2018-07-15T14:28:23.641Z,17.99
2018-07-15T14:30:57.993Z,19.17
2018-07-15T14:33:51.397Z,19.32
2018-07-15T14:36:28.704Z,19.34
2018-07-15T14:39:04.374Z,18.79
2018-07-15T14:41:46.127Z,19.04
2018-07-15T14:44:20.266Z,19.10
2018-07-15T14:46:55.909Z,18.26
2018-07-15T14:49:29.377Z,19.03
2018-07-15T14:52:04.471Z,18.83
2018-07-15T14:54:39.425Z,18.27
2018-07-15T14:57:13.429Z,18.05
2018-07-15T14:59:47.530Z,18.42
2018-07-15T15:02:20.064Z,18.58
2018-07-15T15:04:54.391Z,18.88
2018-07-15T15:07:28.919Z,19.44
2018-07-15T15:10:02.592Z,19.11
2018-07-15T15:12:42.669Z,19.48
2018-07-15T15:15:17.708Z,19.76
2018-07-15T15:17:54.024Z,19.12
2018-07-15T15:20:30.213Z,18.84
2018-07-15T15:23:04.605Z,18.95
2018-07-15T15:25:39.966Z,18.74
2018-07-15T15:28:15.720Z,18.74
2018-07-15T15:30:56.078Z,19.16
2018-07-15T15:33:29.425Z,19.15
2018-07-15T15:36:03.052Z,19.07
2018-07-15T15:38:38.237Z,18.79
2018-07-15T15:41:15.733Z,18.98
2018-07-15T15:43:50.625Z,19.15
2018-07-15T15:46:25.447Z,19.15
2018-07-15T15:48:58.173Z,18.93
2018-07-15T15:51:33.846Z,17.99
2018-07-15T15:54:06.856Z,18.26
2018-07-15T15:56:42.539Z,18.63
2018-07-15T15:59:17.492Z,19.00
2018-07-15T16:01:51.885Z,19.65
2018-07-15T16:04:29.620Z,19.30
2018-07-15T16:07:11.258Z,19.40
2018-07-15T16:09:48.154Z,19.36
2018-07-15T16:12:25.138Z,19.25
2018-07-15T16:15:04.003Z,19.27
2018-07-15T16:17:50.488Z,19.87
2018-07-15T16:20:32.969Z,19.34
2018-07-15T16:23:09.346Z,19.98
2018-07-15T16:25:44.166Z,19.87
2018-07-15T16:28:19.955Z,19.48
2018-07-15T16:30:54.577Z,19.29
2018-07-15T16:33:43.642Z,18.50
2018-07-15T16:36:17.734Z,18.44
2018-07-15T16:38:56.695Z,19.08
2018-07-15T16:41:29.745Z,19.01
2018-07-15T16:44:04.882Z,19.13
2018-07-15T16:46:40.713Z,18.88
2018-07-15T16:49:16.906Z,18.37
2018-07-15T16:51:51.313Z,18.20
2018-07-15T16:54:26.553Z,18.65
2018-07-15T16:57:04.777Z,18.63
2018-07-15T16:59:38.715Z,18.32
2018-07-15T17:02:13.360Z,18.86
2018-07-15T17:04:51.022Z,19.34
2018-07-15T17:07:25.278Z,19.61
2018-07-15T17:09:59.305Z,19.36
2018-07-15T17:12:33.909Z,19.44
2018-07-15T17:15:07.934Z,19.55
2018-07-15T17:17:42.292Z,19.79
2018-07-15T17:20:17.670Z,19.65
2018-07-15T17:22:53.670Z,19.84
2018-07-15T17:25:26.955Z,19.66
2018-07-15T17:28:01.369Z,20.18
2018-07-15T17:30:36.849Z,20.80
2018-07-15T17:33:10.005Z,21.15
2018-07-15T17:35:44.533Z,21.49
2018-07-15T17:38:20.696Z,21.42
2018-07-15T17:41:04.842Z,21.62
2018-07-15T17:43:38.449Z,22.20
2018-07-15T17:46:12.563Z,22.56
2018-07-15T17:48:46.871Z,22.76
2018-07-15T17:51:21.141Z,22.81
2018-07-15T17:53:56.660Z,23.45
2018-07-15T17:56:34.175Z,23.37
2018-07-15T17:59:10.395Z,23.35
2018-07-15T18:01:43.184Z,23.34
2018-07-15T18:04:17.569Z,23.48
2018-07-15T18:06:51.252Z,23.37
2018-07-15T18:09:25.300Z,23.07
2018-07-15T18:11:58.883Z,23.43
2018-07-15T18:14:37.700Z,23.78
2018-07-15T18:17:11.564Z,23.99
2018-07-15T18:19:53.482Z,24.32
2018-07-15T18:22:32.008Z,24.66
2018-07-15T18:25:15.333Z,25.04
2018-07-15T18:27:50.309Z,25.22
2018-07-15T18:30:30.808Z,25.42
2018-07-15T18:33:05.117Z,26.18
2018-07-15T18:35:40.000Z,26.39
2018-07-15T18:38:21.947Z,26.72
2018-07-15T18:40:55.042Z,26.93
2018-07-15T18:43:30.007Z,26.96
2018-07-15T18:46:05.999Z,27.25
2018-07-15T18:48:41.779Z,27.62
2018-07-15T18:51:14.356Z,27.86
2018-07-15T18:53:48.342Z,28.09
2018-07-15T18:56:21.913Z,28.47
2018-07-15T18:58:56.593Z,28.73
2018-07-15T19:01:34.556Z,29.09
2018-07-15T19:04:08.252Z,29.37
2018-07-15T19:06:40.846Z,29.70
2018-07-15T19:09:17.387Z,30.00
2018-07-15T19:11:51.200Z,30.36
2018-07-15T19:14:24.676Z,30.79
2018-07-15T19:17:12.054Z,31.09
2018-07-15T19:19:51.718Z,31.28
2018-07-15T19:22:45.091Z,31.43
2018-07-15T19:25:20.358Z,31.72
2018-07-15T19:27:53.512Z,32.04
2018-07-15T19:30:32.017Z,32.51
2018-07-15T19:33:08.373Z,33.02
2018-07-15T19:35:44.478Z,33.68
2018-07-15T19:38:26.489Z,34.15
2018-07-15T19:41:03.629Z,34.93
2018-07-15T19:43:41.334Z,35.71
2018-07-15T19:46:19.953Z,36.33
2018-07-15T19:48:55.320Z,36.88
2018-07-15T19:51:31.493Z,37.02
2018-07-15T19:54:06.129Z,37.38
2018-07-15T19:56:40.447Z,37.94
2018-07-15T19:59:13.176Z,38.20
2018-07-15T20:01:46.796Z,38.28
2018-07-15T20:04:22.049Z,38.73
2018-07-15T20:06:55.765Z,39.34
2018-07-15T20:09:30.519Z,39.07
2018-07-15T20:12:05.732Z,39.42
2018-07-15T20:14:47.558Z,40.57
2018-07-15T20:17:21.688Z,42.11
2018-07-15T20:19:56.073Z,42.86
2018-07-15T20:22:42.604Z,43.28
2018-07-15T20:25:16.450Z,43.74
2018-07-15T20:27:51.751Z,44.38
2018-07-15T20:30:37.541Z,44.89
2018-07-15T20:33:16.680Z,45.46
2018-07-15T20:35:52.694Z,45.71
2018-07-15T20:38:30.249Z,46.16
2018-07-15T20:41:03.473Z,46.48
2018-07-15T20:43:41.580Z,46.69
2018-07-15T20:46:15.750Z,46.84
2018-07-15T20:48:52.127Z,46.80
2018-07-15T20:51:25.907Z,46.70
2018-07-15T20:54:01.807Z,46.51
2018-07-15T20:56:38.965Z,46.72
2018-07-15T20:59:20.373Z,47.04
2018-07-15T21:01:55.340Z,47.33
2018-07-15T21:04:38.592Z,47.74
2018-07-15T21:07:15.537Z,47.99
2018-07-15T21:09:57.726Z,48.32
2018-07-15T21:12:34.981Z,48.77
2018-07-15T21:15:14.545Z,48.58
2018-07-15T21:17:49.405Z,48.02
2018-07-15T21:20:30.109Z,48.13
2018-07-15T21:23:18.545Z,48.45
2018-07-15T21:25:53.961Z,48.88
2018-07-15T21:28:30.673Z,49.55
2018-07-15T21:31:05.309Z,50.08
2018-07-15T21:33:37.871Z,50.61
2018-07-15T21:36:13.372Z,50.88
2018-07-15T21:38:48.434Z,51.06
2018-07-15T21:41:23.183Z,51.14
2018-07-15T21:43:57.397Z,51.77
2018-07-15T21:46:30.768Z,52.56
2018-07-15T21:49:09.244Z,53.41
2018-07-15T21:51:43.481Z,54.37
2018-07-15T21:54:19.287Z,55.21
2018-07-15T21:56:52.945Z,55.89
2018-07-15T21:59:28.249Z,56.07
2018-07-15T22:02:02.766Z,55.76
2018-07-15T22:04:37.978Z,56.43
2018-07-15T22:07:33.053Z,56.73
2018-07-15T22:10:37.328Z,57.41
2018-07-15T22:13:16.134Z,56.81
2018-07-15T22:15:49.673Z,56.72
2018-07-15T22:18:26.809Z,56.61
2018-07-15T22:21:01.627Z,56.83
2018-07-15T22:23:36.337Z,56.97
2018-07-15T22:26:11.263Z,57.08
2018-07-15T22:28:43.992Z,56.78
2018-07-15T22:31:17.696Z,56.86
2018-07-15T22:33:52.072Z,56.80
2018-07-15T22:36:24.671Z,57.28
2018-07-15T22:38:58.790Z,57.65
2018-07-15T22:41:31.594Z,57.63
2018-07-15T22:44:05.230Z,58.29
2018-07-15T22:46:38.800Z,58.29
2018-07-15T22:49:12.861Z,58.51
2018-07-15T22:51:46.450Z,59.30
2018-07-15T22:54:20.584Z,59.54
2018-07-15T22:56:53.712Z,59.93
2018-07-15T22:59:26.664Z,60.59
2018-07-15T23:02:00.829Z,60.89
2018-07-15T23:05:35.244Z,62.58
2018-07-15T23:08:08.265Z,62.75
2018-07-15T23:10:40.765Z,63.67
2018-07-15T23:13:15.019Z,63.61
2018-07-15T23:15:48.011Z,64.83
2018-07-15T23:18:20.601Z,65.27
2018-07-15T23:20:54.238Z,65.07
2018-07-15T23:23:26.784Z,65.26
2018-07-15T23:26:03.027Z,65.41
2018-07-15T23:28:36.846Z,64.55
2018-07-15T23:31:09.461Z,63.25
2018-07-15T23:33:42.026Z,62.21
2018-07-15T23:36:16.772Z,60.68
2018-07-15T23:38:49.321Z,59.78
2018-07-15T23:41:21.740Z,59.06
2018-07-15T23:43:54.629Z,58.64
2018-07-15T23:46:27.758Z,58.68
2018-07-15T23:49:01.625Z,58.50
2018-07-15T23:51:36.452Z,58.69
2018-07-15T23:54:09.478Z,58.58
2018-07-15T23:56:44.800Z,58.78
2018-07-15T23:59:19.214Z,58.73
